Hermitage, Arkansas
Current Conditions -  °F | °C
As of 4:53 AM on Thursday 27 Nov 2014 (Local Time) from KLLQ Reporting Station
Clear Clear  
Wind Chill: 33°   Ceiling: Unl
Heat Index: 39°   Visibility: 10mi
Dew Point: 28°   Wind: 8mph
Humidity: 65%   Direction: 290°WNW
Pressure: 30.42"   Gusts: NA
Location:  33.45°N, 92.17°W
Report Text: KLLQ 271053Z AUTO 29007KT 10SM CLR 04/M02 A3042 RMK AO2 SLP299 T00391022
Loading
Personal Weather Stations






























Interactive Weather Map New forecast layout! Learn more

10-Day Weather Forecast

Advertisements
Track Severe Weather on mobile